# Land Stadt Wetter Temperatur Luftdruck Luftfeuchtigkeit Sichtweite Windgeschwindigkeit Windrichtung Ortszeit
1 ru Jakutsk Snow -38 1016 67 5000 7 10 02.08.2018 14:22
2 ru Werchojansk Clouds -31 1011 100 5475 5 85 02.08.2018 14:22
3 mn Ulaanbaatar Clear -26 1024 76 10000 4 0 02.08.2018 14:23
4 ca Montreal Clear -21 1025 81 10000 4 120 02.08.2018 14:22
5 mn Uliastai Clouds -18 1039 71 10000 10 78 02.08.2018 14:23
6 us Nome Fog -18 1012 100 805 0 0 02.08.2018 14:23
7 us Chicago Clear -13 1027 68 10000 10 251 02.08.2018 14:23
8 us Fairbanks Snow -12 1011 84 8047 6 50 02.08.2018 14:23
9 gl Nuuk Clouds -12 995 72 10000 6 150 02.08.2018 14:22
10 us Denver Clear -9 1024 61 10000 2 197 02.08.2018 14:21
11 ru Surgut Clouds -8 1020 85 10000 11 210 02.08.2018 14:23
12 fi Rovaniemi Snow -7 989 93 4200 9 290 02.08.2018 14:21
13 cn Peking Clouds -7 1034 18 10000 8 35 02.08.2018 14:23
14 ru Anadyr Mist -6 1004 92 4400 18 100 02.08.2018 14:23
15 ru Amderma Clouds -5 999 91 3036 25 206 02.08.2018 14:23
16 us New York Clouds -3 1026 76 10000 17 10 02.08.2018 14:22
17 is Reykjavik Clouds -2 1006 69 10000 13 70 02.08.2018 14:22
18 kr Seoul Clear -2 1025 49 10000 11 320 02.08.2018 14:21
19 af Kabul Clouds -2 1028 83 10000 5 202 02.08.2018 14:21
20 no Hammerfest Snow -2 996 80 10000 15 30 02.08.2018 14:22
21 no Oslo Clouds -2 995 83 10000 7 10 02.08.2018 14:23
22 se Stockholm Snow -1 992 92 5000 7 20 02.08.2018 14:23
23 ru Moskau Clouds 0 1006 97 330 11 162 02.08.2018 14:22
24 us Las Vegas Clear 0 1024 47 10000 11 160 02.08.2018 14:21
25 ch Andermatt Clouds 1 1025 83 10000 12 325 02.08.2018 14:23
26 ua Kiew Rain 1 1004 89 1070 2 153 02.08.2018 14:21
27 fi Helsinki Clouds 1 994 83 10000 7 100 02.08.2018 14:21
28 de Torfhaus Snow 1 1013 86 6996 28 259 02.08.2018 14:22
29 tr Ankara Clouds 2 1011 76 10000 9 110 02.08.2018 14:23
30 in Jagatsukh Clouds 3 1027 62 10000 17 24 02.08.2018 14:22
31 cn Lhasa Clear 3 1009 9 10000 9 281 02.08.2018 14:22
32 us Tucson Clear 4 1017 88 10000 6 180 02.08.2018 14:21
33 de München Clouds 4 1023 74 10000 16 262 02.08.2018 14:21
34 de Oberstdorf Clouds 4 1022 75 2860 8 153 02.08.2018 14:21
35 at Wien Rain 5 1016 87 10000 37 290 02.08.2018 14:22
36 de Hamburg Rain 5 1006 88 10000 37 250 02.08.2018 14:21
37 de Bremen Thunderstorm 5 1008 93 9000 44 250 02.08.2018 14:22
38 ad Andorra la Vella Clear 5 1026 76 10000 11 10 02.08.2018 14:22
39 de Nürnberg Clouds 5 1019 81 10000 24 260 02.08.2018 14:21
40 de Stuttgart Clouds 6 1022 72 10000 17 240 02.08.2018 14:22
41 de Helgoland Rain 6 1007 80 10000 50 291 02.08.2018 14:22
42 de Magdeburg Clouds 6 1011 78 10000 38 270 02.08.2018 14:22
43 de Dresden Clouds 6 1006 81 10000 24 260 02.08.2018 14:22
44 bo Potisi Clouds 6 1043 81 10000 15 60 02.08.2018 14:22
45 bg Sofia Clouds 6 1019 50 10000 28 280 02.08.2018 14:21
46 de Braunschweig Rain 6 1009 71 10000 32 360 02.08.2018 14:21
47 de Freiburg Clouds 6 1025 79 10000 16 202 02.08.2018 14:22
48 at Innsbruck Clouds 6 1018 62 10000 10 288 02.08.2018 14:23
49 ch Bern Clouds 6 1027 60 10000 23 270 02.08.2018 14:23
50 de Flensburg Clouds 6 1003 81 10000 36 280 02.08.2018 14:21
51 de Hannover Rain 6 1009 87 10000 41 250 02.08.2018 14:21
52 de Emden Clouds 6 1010 90 10000 45 286 02.08.2018 14:21
53 de Berlin Clouds 6 998 82 10000 32 270 02.08.2018 14:21
54 de Kassel Rain 7 1013 65 10000 39 250 02.08.2018 14:21
55 tr Istanbul Clouds 7 1017 53 10000 19 270 02.08.2018 14:23
56 bo La Paz Clouds 7 1038 93 8000 4 0 02.08.2018 14:22
57 de Frankfurt Clouds 7 1020 70 10000 32 240 02.08.2018 14:22
58 cn Shanghai Clouds 7 1020 65 10000 29 30 02.08.2018 14:21
59 de Hiddensee Clouds 7 1002 76 10000 45 271 02.08.2018 14:21
60 jp Tokio Clear 8 1007 47 10000 28 250 02.08.2018 14:22
61 de Trier Clouds 8 1024 83 10000 22 261 02.08.2018 14:21
62 gb Glasgow Clouds 8 1016 75 10000 15 270 02.08.2018 14:21
63 bg Warna Clouds 8 1014 74 10000 32 270 02.08.2018 14:21
64 de Köln Clouds 8 1023 70 10000 37 270 02.08.2018 14:21
65 us Los Angeles Clear 9 1023 45 10000 9 90 02.08.2018 14:22
66 gb Manchester Clouds 9 1020 79 10000 33 270 02.08.2018 14:21
67 mx Mexiko Stadt Mist 9 1020 82 8047 9 80 02.08.2018 14:21
68 us Death Valley Clouds 9 1024 27 10000 8 357 02.08.2018 14:22
69 pe Cusco Clouds 10 1031 82 10000 0 0 02.08.2018 14:23
70 jp Nagasaki Clouds 10 1019 66 10000 17 331 02.08.2018 14:21
71 fr Paris Clouds 10 1028 69 10000 24 270 02.08.2018 14:22
72 ie Dublin Clouds 10 1023 76 10000 35 250 02.08.2018 14:21
73 gb London Clouds 10 1023 67 10000 35 260 02.08.2018 14:22
74 es Madrid Clear 11 1026 48 10000 9 70 02.08.2018 14:23
75 fr Bordeaux Clouds 11 1033 76 10000 4 0 02.08.2018 14:21
76 gr Athen Clouds 11 1021 36 10000 19 330 02.08.2018 14:22
77 ar Ushuaia Rain 11 1003 76 10000 15 230 02.08.2018 14:22
78 tr Alanya Clear 13 1010 37 10000 46 247 02.08.2018 14:22
79 it Rom Clouds 13 1023 63 10000 9 310 02.08.2018 14:23
80 pt Lissabon Clear 13 1022 63 10000 14 270 02.08.2018 14:22
81 es Tarifa Clear 14 1026 61 10000 22 82 02.08.2018 14:21
82 es Palma de Mallorca Clouds 14 1028 64 10000 17 240 02.08.2018 14:22
83 it Mailand Clear 14 1019 55 10000 19 270 02.08.2018 14:21
84 it Palermo Clear 14 1024 46 10000 3 312 02.08.2018 14:22
85 ar Esquel Clouds 14 1017 35 10000 8 250 02.08.2018 14:22
86 ma Marrakesch Clouds 14 1025 41 8000 6 210 02.08.2018 14:23
87 es Barcelona Clear 14 1026 52 10000 13 240 02.08.2018 14:22
88 fr Nizza Clouds 14 1020 66 10000 15 110 02.08.2018 14:22
89 es Sevilla Clear 15 1026 42 10000 7 70 02.08.2018 14:22
90 iq Bagdad Clouds 17 1012 45 10000 19 220 02.08.2018 14:22
91 eg Kairo Sand 17 1014 42 2000 39 260 02.08.2018 14:22
92 ma Casablanca Clouds 17 1025 59 10000 11 340 02.08.2018 14:23
93 bs Nassau Clouds 19 1023 94 10000 0 0 02.08.2018 14:22
94 es Las Palmas de Gran Canaria Clear 20 1021 61 10000 19 1 02.08.2018 14:21
95 nz Wellington Clouds 20 1011 89 10000 20 20 02.08.2018 14:23
96 cl Santiago Clear 21 1018 47 10000 0 0 02.08.2018 14:23
97 us Honolulu Clear 21 1014 92 10000 2 264 02.08.2018 14:22
98 vn Hanoi Clouds 21 1012 68 10000 16 134 02.08.2018 14:21
99 au Sydney Clouds 22 1001 80 10000 9 110 02.08.2018 14:22
100 au Alice Springs Clear 22 1009 83 10000 0 0 02.08.2018 14:21
101 in Nagpur Haze 22 1016 53 3000 0 0 02.08.2018 14:21
102 mx Veracruz Mist 22 1018 100 6437 6 310 02.08.2018 14:21
103 qa Doha Dust 22 1012 68 2500 22 120 02.08.2018 14:23
104 us Miami Clouds 23 1023 89 10000 6 350 02.08.2018 14:23
105 do Santo Domingo Clouds 23 1020 90 10000 15 360 02.08.2018 14:21
106 sa Riad Clouds 23 1011 38 10000 15 249 02.08.2018 14:21
107 uy Montevideo Clouds 24 1014 72 10000 16 141 02.08.2018 14:22
108 pg Port Moresby Clouds 24 1007 100 10000 13 300 02.08.2018 14:21
109 ar Buenos Aires Clouds 25 1015 74 10000 19 100 02.08.2018 14:22
110 et Addis Abeba Clear 25 1010 13 10000 18 158 02.08.2018 14:23
111 ec San Cristobal Rain 25 1012 79 10000 6 159 02.08.2018 14:22
112 mg Antananarivo Rain 25 1016 61 10000 19 130 02.08.2018 14:21
113 fj Suva Clouds 25 1005 94 10000 4 0 02.08.2018 14:21
114 za Kapstadt Clear 26 1015 49 10000 22 170 02.08.2018 14:22
115 br Manaus Clouds 26 1013 83 10000 19 90 02.08.2018 14:21
116 sb Honiara Clouds 26 1009 87 10000 4 55 02.08.2018 14:22
117 ph Manila Clouds 27 1011 75 10000 9 110 02.08.2018 14:21
118 th Bangkok Clouds 27 1010 57 10000 10 183 02.08.2018 14:21
119 ck Avarua Rain 27 1012 78 10000 17 20 02.08.2018 14:22
120 au Perth Clear 28 1012 35 10000 32 120 02.08.2018 14:21
121 ke Nairobi Clouds 28 1019 21 10000 15 130 02.08.2018 14:22
122 id Jakarta Rain 28 1008 76 10000 7 295 02.08.2018 14:22
123 mv Male Clouds 28 1008 78 9000 20 330 02.08.2018 14:23
124 br Rio de Janeiro Clear 28 1012 75 10000 11 140 02.08.2018 14:22
125 ae Dubai Clear 29 1014 23 10000 17 180 02.08.2018 14:21
126 au Darwin Clouds 29 1006 81 10000 17 300 02.08.2018 14:22
127 in Mumbai Smoke 29 1010 54 3000 7 310 02.08.2018 14:22
128 cd Kisangani Clouds 35 1005 34 10000 5 330 02.08.2018 14:23